sensor_id;sensor_type;location;lat;lon;timestamp;temperature;humidity
51655;DHT22;37732;53.106;7.030;2022-09-17T00:00:49;11.40;99.90
51655;DHT22;37732;53.106;7.030;2022-09-17T00:03:15;11.40;99.90
51655;DHT22;37732;53.106;7.030;2022-09-17T00:05:41;12.10;99.90
51655;DHT22;37732;53.106;7.030;2022-09-17T00:08:11;11.00;99.90
51655;DHT22;37732;53.106;7.030;2022-09-17T00:10:39;11.50;99.90
51655;DHT22;37732;53.106;7.030;2022-09-17T00:13:06;11.50;99.90
51655;DHT22;37732;53.106;7.030;2022-09-17T00:15:39;11.50;99.90
51655;DHT22;37732;53.106;7.030;2022-09-17T00:18:05;11.40;99.90
51655;DHT22;37732;53.106;7.030;2022-09-17T00:20:36;11.50;99.90
51655;DHT22;37732;53.106;7.030;2022-09-17T00:23:02;11.60;99.90
51655;DHT22;37732;53.106;7.030;2022-09-17T00:25:27;11.60;99.90
51655;DHT22;37732;53.106;7.030;2022-09-17T00:27:53;12.50;99.90
51655;DHT22;37732;53.106;7.030;2022-09-17T00:30:19;11.10;99.90
51655;DHT22;37732;53.106;7.030;2022-09-17T00:32:44;11.50;99.90
51655;DHT22;37732;53.106;7.030;2022-09-17T00:35:10;12.30;99.90
51655;DHT22;37732;53.106;7.030;2022-09-17T00:37:36;12.10;99.90
51655;DHT22;37732;53.106;7.030;2022-09-17T00:40:02;11.40;99.90
51655;DHT22;37732;53.106;7.030;2022-09-17T00:42:28;11.40;99.90
51655;DHT22;37732;53.106;7.030;2022-09-17T00:44:55;11.30;99.90
51655;DHT22;37732;53.106;7.030;2022-09-17T00:47:35;11.60;99.90
51655;DHT22;37732;53.106;7.030;2022-09-17T00:50:20;11.30;99.90
51655;DHT22;37732;53.106;7.030;2022-09-17T00:52:54;11.40;99.90
51655;DHT22;37732;53.106;7.030;2022-09-17T00:55:26;11.80;99.90
51655;DHT22;37732;53.106;7.030;2022-09-17T00:57:55;11.50;99.90
51655;DHT22;37732;53.106;7.030;2022-09-17T01:00:24;12.10;99.90
51655;DHT22;37732;53.106;7.030;2022-09-17T01:02:51;11.30;99.90
51655;DHT22;37732;53.106;7.030;2022-09-17T01:26:02;11.30;99.90
51655;DHT22;37732;53.106;7.030;2022-09-17T01:31:49;11.20;99.90
51655;DHT22;37732;53.106;7.030;2022-09-17T01:34:40;11.10;99.90
51655;DHT22;37732;53.106;7.030;2022-09-17T01:37:13;11.10;99.90
51655;DHT22;37732;53.106;7.030;2022-09-17T01:39:55;11.10;99.90
51655;DHT22;37732;53.106;7.030;2022-09-17T01:47:53;11.10;99.90
51655;DHT22;37732;53.106;7.030;2022-09-17T01:50:32;11.00;99.90
51655;DHT22;37732;53.106;7.030;2022-09-17T01:53:03;11.00;99.90
51655;DHT22;37732;53.106;7.030;2022-09-17T01:55:32;11.60;99.90
51655;DHT22;37732;53.106;7.030;2022-09-17T01:58:13;11.20;99.90
51655;DHT22;37732;53.106;7.030;2022-09-17T02:00:43;11.10;99.90
51655;DHT22;37732;53.106;7.030;2022-09-17T02:03:24;11.00;99.90
51655;DHT22;37732;53.106;7.030;2022-09-17T02:06:03;11.00;99.90
51655;DHT22;37732;53.106;7.030;2022-09-17T02:08:37;10.90;99.90
51655;DHT22;37732;53.106;7.030;2022-09-17T02:11:08;11.10;99.90
51655;DHT22;37732;53.106;7.030;2022-09-17T02:13:46;11.00;99.90
51655;DHT22;37732;53.106;7.030;2022-09-17T02:16:17;11.00;99.90
51655;DHT22;37732;53.106;7.030;2022-09-17T02:18:49;10.90;99.90
51655;DHT22;37732;53.106;7.030;2022-09-17T02:21:33;10.00;99.90
51655;DHT22;37732;53.106;7.030;2022-09-17T02:38:57;10.40;99.90
51655;DHT22;37732;53.106;7.030;2022-09-17T02:41:25;10.70;99.90
51655;DHT22;37732;53.106;7.030;2022-09-17T02:54:45;10.00;99.90
51655;DHT22;37732;53.106;7.030;2022-09-17T02:57:29;9.90;99.90
51655;DHT22;37732;53.106;7.030;2022-09-17T03:05:08;9.80;99.90
51655;DHT22;37732;53.106;7.030;2022-09-17T03:07:34;9.80;99.90
51655;DHT22;37732;53.106;7.030;2022-09-17T03:10:00;9.70;99.90
51655;DHT22;37732;53.106;7.030;2022-09-17T03:12:26;10.60;99.90
51655;DHT22;37732;53.106;7.030;2022-09-17T03:14:52;10.50;99.90
51655;DHT22;37732;53.106;7.030;2022-09-17T03:17:18;10.50;99.90
51655;DHT22;37732;53.106;7.030;2022-09-17T03:19:43;10.20;99.90
51655;DHT22;37732;53.106;7.030;2022-09-17T03:22:09;9.60;99.90
51655;DHT22;37732;53.106;7.030;2022-09-17T03:24:35;9.90;99.90
51655;DHT22;37732;53.106;7.030;2022-09-17T03:27:01;9.60;99.90
51655;DHT22;37732;53.106;7.030;2022-09-17T03:29:26;9.90;99.90
51655;DHT22;37732;53.106;7.030;2022-09-17T03:31:55;9.60;99.90
51655;DHT22;37732;53.106;7.030;2022-09-17T03:34:21;10.20;99.90
51655;DHT22;37732;53.106;7.030;2022-09-17T03:36:48;9.60;99.90
51655;DHT22;37732;53.106;7.030;2022-09-17T03:39:13;10.70;99.90
51655;DHT22;37732;53.106;7.030;2022-09-17T03:41:39;10.20;99.90
51655;DHT22;37732;53.106;7.030;2022-09-17T03:44:05;10.70;99.90
51655;DHT22;37732;53.106;7.030;2022-09-17T03:46:31;9.70;99.90
51655;DHT22;37732;53.106;7.030;2022-09-17T03:48:56;9.80;99.90
51655;DHT22;37732;53.106;7.030;2022-09-17T03:51:22;9.90;99.90
51655;DHT22;37732;53.106;7.030;2022-09-17T03:53:48;10.60;99.90
51655;DHT22;37732;53.106;7.030;2022-09-17T03:56:14;9.70;99.90
51655;DHT22;37732;53.106;7.030;2022-09-17T03:58:39;10.60;99.90
51655;DHT22;37732;53.106;7.030;2022-09-17T04:01:05;9.70;99.90
51655;DHT22;37732;53.106;7.030;2022-09-17T04:03:31;9.60;99.90
51655;DHT22;37732;53.106;7.030;2022-09-17T04:05:58;9.60;99.90
51655;DHT22;37732;53.106;7.030;2022-09-17T04:08:24;9.70;99.90
51655;DHT22;37732;53.106;7.030;2022-09-17T04:10:50;9.50;99.90
51655;DHT22;37732;53.106;7.030;2022-09-17T04:13:19;9.40;99.90
51655;DHT22;37732;53.106;7.030;2022-09-17T04:15:45;9.60;99.90
51655;DHT22;37732;53.106;7.030;2022-09-17T04:18:12;9.40;99.90
51655;DHT22;37732;53.106;7.030;2022-09-17T04:20:38;10.30;99.90
51655;DHT22;37732;53.106;7.030;2022-09-17T04:23:04;10.20;99.90
51655;DHT22;37732;53.106;7.030;2022-09-17T04:25:32;9.30;99.90
51655;DHT22;37732;53.106;7.030;2022-09-17T04:27:58;9.30;99.90
51655;DHT22;37732;53.106;7.030;2022-09-17T04:30:24;9.30;99.90
51655;DHT22;37732;53.106;7.030;2022-09-17T04:32:50;9.30;99.90
51655;DHT22;37732;53.106;7.030;2022-09-17T04:35:15;9.80;99.90
51655;DHT22;37732;53.106;7.030;2022-09-17T04:37:41;9.70;99.90
51655;DHT22;37732;53.106;7.030;2022-09-17T04:40:07;9.40;99.90
51655;DHT22;37732;53.106;7.030;2022-09-17T04:42:33;9.10;99.90
51655;DHT22;37732;53.106;7.030;2022-09-17T04:44:59;9.60;99.90
51655;DHT22;37732;53.106;7.030;2022-09-17T04:47:25;10.40;99.90
51655;DHT22;37732;53.106;7.030;2022-09-17T04:49:50;10.10;99.90
51655;DHT22;37732;53.106;7.030;2022-09-17T04:52:16;9.40;99.90
51655;DHT22;37732;53.106;7.030;2022-09-17T04:54:42;9.40;99.90
51655;DHT22;37732;53.106;7.030;2022-09-17T04:57:08;10.50;99.90
51655;DHT22;37732;53.106;7.030;2022-09-17T04:59:33;9.50;99.90
51655;DHT22;37732;53.106;7.030;2022-09-17T05:01:59;10.40;99.90
51655;DHT22;37732;53.106;7.030;2022-09-17T05:04:25;10.90;99.90
51655;DHT22;37732;53.106;7.030;2022-09-17T05:06:50;10.40;99.90
51655;DHT22;37732;53.106;7.030;2022-09-17T05:09:16;10.40;99.90
51655;DHT22;37732;53.106;7.030;2022-09-17T05:11:42;9.70;99.90
51655;DHT22;37732;53.106;7.030;2022-09-17T05:14:08;10.10;99.90
51655;DHT22;37732;53.106;7.030;2022-09-17T05:16:33;9.40;99.90
51655;DHT22;37732;53.106;7.030;2022-09-17T05:18:59;10.70;99.90
51655;DHT22;37732;53.106;7.030;2022-09-17T05:21:25;10.70;99.90
51655;DHT22;37732;53.106;7.030;2022-09-17T05:23:51;9.50;99.90
51655;DHT22;37732;53.106;7.030;2022-09-17T05:26:16;9.40;99.90
51655;DHT22;37732;53.106;7.030;2022-09-17T05:28:42;9.40;99.90
51655;DHT22;37732;53.106;7.030;2022-09-17T05:31:08;9.40;99.90
51655;DHT22;37732;53.106;7.030;2022-09-17T05:33:34;9.40;99.90
51655;DHT22;37732;53.106;7.030;2022-09-17T05:35:59;9.60;99.90
51655;DHT22;37732;53.106;7.030;2022-09-17T05:38:25;9.30;99.90
51655;DHT22;37732;53.106;7.030;2022-09-17T05:40:51;9.30;99.90
51655;DHT22;37732;53.106;7.030;2022-09-17T05:43:17;9.30;99.90
51655;DHT22;37732;53.106;7.030;2022-09-17T05:45:43;9.30;99.90
51655;DHT22;37732;53.106;7.030;2022-09-17T05:48:11;9.60;99.90
51655;DHT22;37732;53.106;7.030;2022-09-17T05:50:38;9.20;99.90
51655;DHT22;37732;53.106;7.030;2022-09-17T05:53:05;10.00;99.90
51655;DHT22;37732;53.106;7.030;2022-09-17T05:55:32;9.20;99.90
51655;DHT22;37732;53.106;7.030;2022-09-17T05:57:59;9.20;99.90
51655;DHT22;37732;53.106;7.030;2022-09-17T06:00:26;9.20;99.90
51655;DHT22;37732;53.106;7.030;2022-09-17T06:02:55;10.10;99.90
51655;DHT22;37732;53.106;7.030;2022-09-17T06:05:22;9.40;99.90
51655;DHT22;37732;53.106;7.030;2022-09-17T06:07:49;9.40;99.90
51655;DHT22;37732;53.106;7.030;2022-09-17T06:10:15;10.60;99.90
51655;DHT22;37732;53.106;7.030;2022-09-17T06:12:40;10.80;99.90
51655;DHT22;37732;53.106;7.030;2022-09-17T06:15:06;10.00;99.90
51655;DHT22;37732;53.106;7.030;2022-09-17T06:17:33;10.00;99.90
51655;DHT22;37732;53.106;7.030;2022-09-17T06:20:00;10.10;99.90
51655;DHT22;37732;53.106;7.030;2022-09-17T06:22:26;10.20;99.90
51655;DHT22;37732;53.106;7.030;2022-09-17T06:24:52;10.30;99.90
51655;DHT22;37732;53.106;7.030;2022-09-17T06:27:17;10.50;99.90
51655;DHT22;37732;53.106;7.030;2022-09-17T06:29:43;10.70;99.90
51655;DHT22;37732;53.106;7.030;2022-09-17T06:32:08;11.40;99.90
51655;DHT22;37732;53.106;7.030;2022-09-17T06:34:40;11.00;99.90
51655;DHT22;37732;53.106;7.030;2022-09-17T06:37:06;11.30;99.90
51655;DHT22;37732;53.106;7.030;2022-09-17T06:39:31;11.50;99.90
51655;DHT22;37732;53.106;7.030;2022-09-17T06:41:57;12.20;99.90
51655;DHT22;37732;53.106;7.030;2022-09-17T06:44:23;11.70;99.90
51655;DHT22;37732;53.106;7.030;2022-09-17T06:46:49;11.70;99.90
51655;DHT22;37732;53.106;7.030;2022-09-17T06:49:16;11.50;99.90
51655;DHT22;37732;53.106;7.030;2022-09-17T06:51:43;11.40;99.90
51655;DHT22;37732;53.106;7.030;2022-09-17T06:54:09;11.30;99.90
51655;DHT22;37732;53.106;7.030;2022-09-17T06:56:35;11.20;99.90
51655;DHT22;37732;53.106;7.030;2022-09-17T06:59:01;11.20;99.90
51655;DHT22;37732;53.106;7.030;2022-09-17T07:01:27;11.10;99.90
51655;DHT22;37732;53.106;7.030;2022-09-17T07:03:52;11.00;99.90
51655;DHT22;37732;53.106;7.030;2022-09-17T07:06:19;12.10;99.90
51655;DHT22;37732;53.106;7.030;2022-09-17T07:08:45;11.60;99.90
51655;DHT22;37732;53.106;7.030;2022-09-17T07:11:12;11.50;99.90
51655;DHT22;37732;53.106;7.030;2022-09-17T07:13:45;12.10;99.90
51655;DHT22;37732;53.106;7.030;2022-09-17T07:16:11;11.60;99.90
51655;DHT22;37732;53.106;7.030;2022-09-17T07:18:46;12.50;99.90
51655;DHT22;37732;53.106;7.030;2022-09-17T07:21:11;11.50;99.90
51655;DHT22;37732;53.106;7.030;2022-09-17T07:23:40;11.50;99.90
51655;DHT22;37732;53.106;7.030;2022-09-17T07:26:15;11.70;99.90
51655;DHT22;37732;53.106;7.030;2022-09-17T07:28:42;11.80;99.90
51655;DHT22;37732;53.106;7.030;2022-09-17T07:31:22;12.00;99.90
51655;DHT22;37732;53.106;7.030;2022-09-17T07:33:48;12.20;99.90
51655;DHT22;37732;53.106;7.030;2022-09-17T07:36:15;12.40;99.90
51655;DHT22;37732;53.106;7.030;2022-09-17T07:38:42;12.60;99.90
51655;DHT22;37732;53.106;7.030;2022-09-17T07:41:13;12.90;99.90
51655;DHT22;37732;53.106;7.030;2022-09-17T07:43:40;13.90;99.90
51655;DHT22;37732;53.106;7.030;2022-09-17T07:46:09;13.40;99.90
51655;DHT22;37732;53.106;7.030;2022-09-17T07:48:37;13.40;99.90
51655;DHT22;37732;53.106;7.030;2022-09-17T07:51:03;13.50;99.90
51655;DHT22;37732;53.106;7.030;2022-09-17T07:53:29;13.40;99.90
51655;DHT22;37732;53.106;7.030;2022-09-17T07:55:56;13.10;99.90
51655;DHT22;37732;53.106;7.030;2022-09-17T07:58:27;13.00;99.90
51655;DHT22;37732;53.106;7.030;2022-09-17T08:00:58;13.00;99.90
51655;DHT22;37732;53.106;7.030;2022-09-17T08:03:24;13.10;99.90
51655;DHT22;37732;53.106;7.030;2022-09-17T08:05:50;13.20;99.90
51655;DHT22;37732;53.106;7.030;2022-09-17T08:08:15;14.30;99.90
51655;DHT22;37732;53.106;7.030;2022-09-17T08:10:41;13.90;99.90
51655;DHT22;37732;53.106;7.030;2022-09-17T08:13:07;13.70;99.90
51655;DHT22;37732;53.106;7.030;2022-09-17T08:15:33;13.80;99.90
51655;DHT22;37732;53.106;7.030;2022-09-17T08:17:58;13.60;99.90
51655;DHT22;37732;53.106;7.030;2022-09-17T08:20:24;13.30;99.90
51655;DHT22;37732;53.106;7.030;2022-09-17T08:22:57;12.90;99.90
51655;DHT22;37732;53.106;7.030;2022-09-17T08:25:23;12.60;99.90
51655;DHT22;37732;53.106;7.030;2022-09-17T08:27:53;12.40;99.90
51655;DHT22;37732;53.106;7.030;2022-09-17T08:30:20;12.20;99.90
51655;DHT22;37732;53.106;7.030;2022-09-17T08:32:46;12.00;99.90
51655;DHT22;37732;53.106;7.030;2022-09-17T08:35:11;12.00;99.90
51655;DHT22;37732;53.106;7.030;2022-09-17T08:37:37;12.20;99.90
51655;DHT22;37732;53.106;7.030;2022-09-17T08:40:03;13.00;99.90
51655;DHT22;37732;53.106;7.030;2022-09-17T08:42:45;12.80;99.90
51655;DHT22;37732;53.106;7.030;2022-09-17T08:45:17;13.10;99.90
51655;DHT22;37732;53.106;7.030;2022-09-17T08:47:45;13.20;99.90
51655;DHT22;37732;53.106;7.030;2022-09-17T08:56:04;13.30;99.90
51655;DHT22;37732;53.106;7.030;2022-09-17T09:04:23;14.00;99.90
51655;DHT22;37732;53.106;7.030;2022-09-17T09:07:03;14.20;99.90
51655;DHT22;37732;53.106;7.030;2022-09-17T09:09:35;14.40;99.90
51655;DHT22;37732;53.106;7.030;2022-09-17T09:12:07;14.50;99.90
51655;DHT22;37732;53.106;7.030;2022-09-17T09:14:44;14.70;99.90
51655;DHT22;37732;53.106;7.030;2022-09-17T09:17:10;15.00;99.90
51655;DHT22;37732;53.106;7.030;2022-09-17T09:19:41;15.40;99.90
51655;DHT22;37732;53.106;7.030;2022-09-17T09:22:46;15.50;99.90
51655;DHT22;37732;53.106;7.030;2022-09-17T09:25:20;15.20;99.90
51655;DHT22;37732;53.106;7.030;2022-09-17T09:28:06;14.30;99.90
51655;DHT22;37732;53.106;7.030;2022-09-17T09:30:51;13.60;99.90
51655;DHT22;37732;53.106;7.030;2022-09-17T09:33:25;13.10;99.90
51655;DHT22;37732;53.106;7.030;2022-09-17T09:35:53;12.70;99.90
51655;DHT22;37732;53.106;7.030;2022-09-17T09:38:37;13.00;99.90
51655;DHT22;37732;53.106;7.030;2022-09-17T09:43:44;12.90;99.90
51655;DHT22;37732;53.106;7.030;2022-09-17T09:54:38;13.80;99.90
51655;DHT22;37732;53.106;7.030;2022-09-17T09:57:18;13.90;99.90
51655;DHT22;37732;53.106;7.030;2022-09-17T09:59:46;14.10;99.90
51655;DHT22;37732;53.106;7.030;2022-09-17T10:02:12;14.20;99.90
51655;DHT22;37732;53.106;7.030;2022-09-17T10:04:39;14.40;99.90
51655;DHT22;37732;53.106;7.030;2022-09-17T10:07:09;14.50;99.90
51655;DHT22;37732;53.106;7.030;2022-09-17T10:09:37;14.80;99.90
51655;DHT22;37732;53.106;7.030;2022-09-17T10:12:24;14.60;99.90
51655;DHT22;37732;53.106;7.030;2022-09-17T10:14:49;14.50;99.90
51655;DHT22;37732;53.106;7.030;2022-09-17T10:17:22;14.40;99.90
51655;DHT22;37732;53.106;7.030;2022-09-17T10:22:34;14.90;99.90
51655;DHT22;37732;53.106;7.030;2022-09-17T10:25:02;15.00;99.90
51655;DHT22;37732;53.106;7.030;2022-09-17T10:27:29;15.10;99.90
51655;DHT22;37732;53.106;7.030;2022-09-17T10:30:15;15.10;99.90
51655;DHT22;37732;53.106;7.030;2022-09-17T10:32:42;15.20;99.90
51655;DHT22;37732;53.106;7.030;2022-09-17T10:37:45;15.60;99.90
51655;DHT22;37732;53.106;7.030;2022-09-17T10:40:30;15.70;99.90
51655;DHT22;37732;53.106;7.030;2022-09-17T10:45:44;15.40;99.90
51655;DHT22;37732;53.106;7.030;2022-09-17T10:48:18;16.10;99.90
51655;DHT22;37732;53.106;7.030;2022-09-17T10:50:49;16.10;99.90
51655;DHT22;37732;53.106;7.030;2022-09-17T10:53:17;16.60;99.90
51655;DHT22;37732;53.106;7.030;2022-09-17T10:55:50;15.70;99.90
51655;DHT22;37732;53.106;7.030;2022-09-17T10:58:36;15.40;99.90
51655;DHT22;37732;53.106;7.030;2022-09-17T11:09:49;15.50;99.90
51655;DHT22;37732;53.106;7.030;2022-09-17T11:20:50;15.90;99.90
51655;DHT22;37732;53.106;7.030;2022-09-17T11:39:42;16.90;96.00
51655;DHT22;37732;53.106;7.030;2022-09-17T11:42:20;16.80;96.90
51655;DHT22;37732;53.106;7.030;2022-09-17T11:44:53;16.70;96.70
51655;DHT22;37732;53.106;7.030;2022-09-17T11:47:50;16.60;96.00
51655;DHT22;37732;53.106;7.030;2022-09-17T11:50:35;16.50;95.90
51655;DHT22;37732;53.106;7.030;2022-09-17T11:55:48;16.50;96.90
51655;DHT22;37732;53.106;7.030;2022-09-17T12:01:06;16.50;97.00
51655;DHT22;37732;53.106;7.030;2022-09-17T12:03:40;16.40;97.10
51655;DHT22;37732;53.106;7.030;2022-09-17T12:06:12;16.30;99.00
51655;DHT22;37732;53.106;7.030;2022-09-17T12:08:56;16.00;99.90
51655;DHT22;37732;53.106;7.030;2022-09-17T12:11:51;15.70;99.90
51655;DHT22;37732;53.106;7.030;2022-09-17T12:14:28;15.50;99.90
51655;DHT22;37732;53.106;7.030;2022-09-17T12:16:58;15.50;99.90
51655;DHT22;37732;53.106;7.030;2022-09-17T12:19:36;15.50;99.90
51655;DHT22;37732;53.106;7.030;2022-09-17T12:22:13;15.70;99.90
51655;DHT22;37732;53.106;7.030;2022-09-17T12:24:42;16.00;99.90
51655;DHT22;37732;53.106;7.030;2022-09-17T12:27:33;16.00;99.90
51655;DHT22;37732;53.106;7.030;2022-09-17T12:30:05;16.20;99.90
51655;DHT22;37732;53.106;7.030;2022-09-17T12:41:13;16.10;98.60
51655;DHT22;37732;53.106;7.030;2022-09-17T12:46:53;15.90;97.40
51655;DHT22;37732;53.106;7.030;2022-09-17T12:57:41;15.80;98.60
51655;DHT22;37732;53.106;7.030;2022-09-17T13:00:13;15.80;98.80
51655;DHT22;37732;53.106;7.030;2022-09-17T13:15:44;15.80;98.00
51655;DHT22;37732;53.106;7.030;2022-09-17T13:18:26;15.70;98.10
51655;DHT22;37732;53.106;7.030;2022-09-17T13:21:12;15.50;99.20
51655;DHT22;37732;53.106;7.030;2022-09-17T13:23:42;15.30;99.90
51655;DHT22;37732;53.106;7.030;2022-09-17T13:26:10;15.30;99.90
51655;DHT22;37732;53.106;7.030;2022-09-17T13:28:40;15.10;99.90
51655;DHT22;37732;53.106;7.030;2022-09-17T13:31:06;15.20;99.90
51655;DHT22;37732;53.106;7.030;2022-09-17T13:33:53;15.30;99.90
51655;DHT22;37732;53.106;7.030;2022-09-17T13:36:46;15.50;99.90
51655;DHT22;37732;53.106;7.030;2022-09-17T13:42:29;15.60;99.90
51655;DHT22;37732;53.106;7.030;2022-09-17T13:45:06;15.70;99.90
51655;DHT22;37732;53.106;7.030;2022-09-17T13:47:39;15.80;99.90
51655;DHT22;37732;53.106;7.030;2022-09-17T13:50:30;15.80;99.90
51655;DHT22;37732;53.106;7.030;2022-09-17T13:52:58;15.80;99.90
51655;DHT22;37732;53.106;7.030;2022-09-17T13:55:38;15.70;99.90
51655;DHT22;37732;53.106;7.030;2022-09-17T13:58:10;15.80;99.90
51655;DHT22;37732;53.106;7.030;2022-09-17T14:00:47;15.90;99.90
51655;DHT22;37732;53.106;7.030;2022-09-17T14:13:51;15.50;99.00
51655;DHT22;37732;53.106;7.030;2022-09-17T14:21:32;15.00;99.00
51655;DHT22;37732;53.106;7.030;2022-09-17T14:24:01;15.00;98.90
51655;DHT22;37732;53.106;7.030;2022-09-17T14:31:33;15.40;95.90
51655;DHT22;37732;53.106;7.030;2022-09-17T14:34:03;15.50;94.90
51655;DHT22;37732;53.106;7.030;2022-09-17T14:36:33;15.60;94.70
51655;DHT22;37732;53.106;7.030;2022-09-17T14:39:02;15.70;94.40
51655;DHT22;37732;53.106;7.030;2022-09-17T14:41:33;15.70;94.20
51655;DHT22;37732;53.106;7.030;2022-09-17T14:44:21;15.70;93.90
51655;DHT22;37732;53.106;7.030;2022-09-17T14:51:52;15.70;94.00
51655;DHT22;37732;53.106;7.030;2022-09-17T14:54:22;15.70;94.30
51655;DHT22;37732;53.106;7.030;2022-09-17T14:56:57;15.70;94.50
51655;DHT22;37732;53.106;7.030;2022-09-17T14:59:49;15.60;94.20
51655;DHT22;37732;53.106;7.030;2022-09-17T15:02:39;15.40;93.80
51655;DHT22;37732;53.106;7.030;2022-09-17T15:05:27;15.40;93.10
51655;DHT22;37732;53.106;7.030;2022-09-17T15:10:52;15.40;94.30
51655;DHT22;37732;53.106;7.030;2022-09-17T15:13:48;15.30;94.70
51655;DHT22;37732;53.106;7.030;2022-09-17T15:16:23;15.20;95.60
51655;DHT22;37732;53.106;7.030;2022-09-17T15:18:54;15.20;95.50
51655;DHT22;37732;53.106;7.030;2022-09-17T15:21:40;15.20;95.90
51655;DHT22;37732;53.106;7.030;2022-09-17T15:26:57;15.10;97.10
51655;DHT22;37732;53.106;7.030;2022-09-17T15:29:27;15.00;98.00
51655;DHT22;37732;53.106;7.030;2022-09-17T15:31:54;14.90;98.60
51655;DHT22;37732;53.106;7.030;2022-09-17T15:34:21;14.80;99.30
51655;DHT22;37732;53.106;7.030;2022-09-17T15:39:40;15.20;99.90
51655;DHT22;37732;53.106;7.030;2022-09-17T15:42:28;15.60;99.90
51655;DHT22;37732;53.106;7.030;2022-09-17T15:45:20;15.00;99.90
51655;DHT22;37732;53.106;7.030;2022-09-17T15:47:56;14.90;99.90
51655;DHT22;37732;53.106;7.030;2022-09-17T15:50:28;14.70;99.90
51655;DHT22;37732;53.106;7.030;2022-09-17T15:58:04;14.60;99.90
51655;DHT22;37732;53.106;7.030;2022-09-17T16:00:30;14.60;99.90
51655;DHT22;37732;53.106;7.030;2022-09-17T16:02:56;14.50;99.90
51655;DHT22;37732;53.106;7.030;2022-09-17T16:07:52;14.50;99.90
51655;DHT22;37732;53.106;7.030;2022-09-17T16:10:18;14.50;99.90
51655;DHT22;37732;53.106;7.030;2022-09-17T16:12:43;14.60;99.90
51655;DHT22;37732;53.106;7.030;2022-09-17T16:15:12;14.40;99.90
51655;DHT22;37732;53.106;7.030;2022-09-17T16:17:46;14.40;99.90
51655;DHT22;37732;53.106;7.030;2022-09-17T16:20:19;14.40;99.90
51655;DHT22;37732;53.106;7.030;2022-09-17T16:22:48;14.30;99.90
51655;DHT22;37732;53.106;7.030;2022-09-17T16:25:15;14.30;99.90
51655;DHT22;37732;53.106;7.030;2022-09-17T16:27:48;14.30;99.90
51655;DHT22;37732;53.106;7.030;2022-09-17T16:30:17;14.20;99.90
51655;DHT22;37732;53.106;7.030;2022-09-17T16:32:44;14.10;99.90
51655;DHT22;37732;53.106;7.030;2022-09-17T16:35:18;13.90;99.90
51655;DHT22;37732;53.106;7.030;2022-09-17T16:37:49;14.00;99.90
51655;DHT22;37732;53.106;7.030;2022-09-17T16:40:15;13.90;99.90
51655;DHT22;37732;53.106;7.030;2022-09-17T16:42:41;13.70;99.90
51655;DHT22;37732;53.106;7.030;2022-09-17T16:45:08;13.60;99.90
51655;DHT22;37732;53.106;7.030;2022-09-17T16:47:38;13.40;99.90
51655;DHT22;37732;53.106;7.030;2022-09-17T16:50:05;13.40;99.90
51655;DHT22;37732;53.106;7.030;2022-09-17T16:52:32;13.30;99.90
51655;DHT22;37732;53.106;7.030;2022-09-17T16:54:58;13.20;99.90
51655;DHT22;37732;53.106;7.030;2022-09-17T16:57:24;13.10;99.90
51655;DHT22;37732;53.106;7.030;2022-09-17T16:59:50;13.00;99.90
51655;DHT22;37732;53.106;7.030;2022-09-17T17:02:15;12.90;99.90
51655;DHT22;37732;53.106;7.030;2022-09-17T17:04:41;12.90;99.90
51655;DHT22;37732;53.106;7.030;2022-09-17T17:07:07;12.80;99.90
51655;DHT22;37732;53.106;7.030;2022-09-17T17:09:33;12.80;99.90
51655;DHT22;37732;53.106;7.030;2022-09-17T17:11:58;12.80;99.90
51655;DHT22;37732;53.106;7.030;2022-09-17T17:14:24;12.80;99.90
51655;DHT22;37732;53.106;7.030;2022-09-17T17:16:50;12.80;99.90
51655;DHT22;37732;53.106;7.030;2022-09-17T17:19:16;12.80;99.90
51655;DHT22;37732;53.106;7.030;2022-09-17T17:21:42;12.70;99.90
51655;DHT22;37732;53.106;7.030;2022-09-17T17:24:09;12.70;99.90
51655;DHT22;37732;53.106;7.030;2022-09-17T17:26:35;13.20;99.90
51655;DHT22;37732;53.106;7.030;2022-09-17T17:29:01;13.10;99.90
51655;DHT22;37732;53.106;7.030;2022-09-17T17:31:27;12.60;99.90
51655;DHT22;37732;53.106;7.030;2022-09-17T17:33:53;12.50;99.90
51655;DHT22;37732;53.106;7.030;2022-09-17T17:36:19;12.50;99.90
51655;DHT22;37732;53.106;7.030;2022-09-17T17:38:45;12.50;99.90
51655;DHT22;37732;53.106;7.030;2022-09-17T17:41:13;12.40;99.90
51655;DHT22;37732;53.106;7.030;2022-09-17T17:43:40;12.40;99.90
51655;DHT22;37732;53.106;7.030;2022-09-17T17:46:07;13.30;99.90
51655;DHT22;37732;53.106;7.030;2022-09-17T17:48:34;13.00;99.90
51655;DHT22;37732;53.106;7.030;2022-09-17T17:51:05;12.10;99.90
51655;DHT22;37732;53.106;7.030;2022-09-17T17:53:31;12.10;99.90
51655;DHT22;37732;53.106;7.030;2022-09-17T17:55:58;12.00;99.90
51655;DHT22;37732;53.106;7.030;2022-09-17T17:58:25;12.00;99.90
51655;DHT22;37732;53.106;7.030;2022-09-17T18:00:51;12.20;99.90
51655;DHT22;37732;53.106;7.030;2022-09-17T18:03:17;11.80;99.90
51655;DHT22;37732;53.106;7.030;2022-09-17T18:05:42;11.70;99.90
51655;DHT22;37732;53.106;7.030;2022-09-17T18:08:08;12.00;99.90
51655;DHT22;37732;53.106;7.030;2022-09-17T18:10:33;11.90;99.90
51655;DHT22;37732;53.106;7.030;2022-09-17T18:12:59;11.80;99.90
51655;DHT22;37732;53.106;7.030;2022-09-17T18:15:25;11.70;99.90
51655;DHT22;37732;53.106;7.030;2022-09-17T18:17:51;12.30;99.90
51655;DHT22;37732;53.106;7.030;2022-09-17T18:20:18;12.00;99.90
51655;DHT22;37732;53.106;7.030;2022-09-17T18:22:44;12.50;99.90
51655;DHT22;37732;53.106;7.030;2022-09-17T18:25:09;12.00;99.90
51655;DHT22;37732;53.106;7.030;2022-09-17T18:27:35;11.60;99.90
51655;DHT22;37732;53.106;7.030;2022-09-17T18:30:01;11.50;99.90
51655;DHT22;37732;53.106;7.030;2022-09-17T18:32:27;11.50;99.90
51655;DHT22;37732;53.106;7.030;2022-09-17T18:34:53;12.10;99.90
51655;DHT22;37732;53.106;7.030;2022-09-17T18:37:19;11.50;99.90
51655;DHT22;37732;53.106;7.030;2022-09-17T18:39:44;11.40;99.90
51655;DHT22;37732;53.106;7.030;2022-09-17T18:42:10;11.90;99.90
51655;DHT22;37732;53.106;7.030;2022-09-17T18:44:36;11.50;99.90
51655;DHT22;37732;53.106;7.030;2022-09-17T18:47:02;11.60;99.90
51655;DHT22;37732;53.106;7.030;2022-09-17T18:49:27;11.60;99.90
51655;DHT22;37732;53.106;7.030;2022-09-17T18:51:54;11.60;99.90
51655;DHT22;37732;53.106;7.030;2022-09-17T18:54:19;11.70;99.90
51655;DHT22;37732;53.106;7.030;2022-09-17T18:56:45;11.50;99.90
51655;DHT22;37732;53.106;7.030;2022-09-17T18:59:11;11.50;99.90
51655;DHT22;37732;53.106;7.030;2022-09-17T19:01:37;11.40;99.90
51655;DHT22;37732;53.106;7.030;2022-09-17T19:04:03;11.40;99.90
51655;DHT22;37732;53.106;7.030;2022-09-17T19:06:28;11.40;99.90
51655;DHT22;37732;53.106;7.030;2022-09-17T19:09:00;11.40;99.90
51655;DHT22;37732;53.106;7.030;2022-09-17T19:11:26;11.70;99.90
51655;DHT22;37732;53.106;7.030;2022-09-17T19:13:52;11.40;99.90
51655;DHT22;37732;53.106;7.030;2022-09-17T19:16:17;11.40;99.90